Pinehurst, California
Current Conditions -  °F | °C
As of 9:35 PM on Friday 24 Oct 2014 (Local Time) from KVIS Reporting Station
Clear Clear  
Wind Chill: 64°   Ceiling: Unl
Heat Index: 64°   Visibility: 8mi
Dew Point: 46°   Wind: 7mph
Humidity: 52%   Direction: 120°ESE
Pressure: 29.93"   Gusts: NA
Location:  36.6891°N, 119.03°W
Report Text: KVIS 250435Z 12006KT 8SM CLR 18/08 A2993 RMK AO1
Loading
Personal Weather Stations






























Interactive Weather Map
Tropical Storm Tracking
New forecast layout! Learn more

10-Day Weather Forecast

Advertisements
Track Severe Weather on mobile